Time;durP1;ratioP1;P1;durP2;ratioP2;P2;SDS_P1;SDS_P2;PMS_P1;PMS_P2;Temp;Humidity;BMP_temperature;BMP_pressure;BME280_temperature;BME280_humidity;BME280_pressure;Samples;Min_cycle;Max_cycle;Signal;HPM_P1;HPM_P2
2023/10/21 06:01:24;;;;;;;;;;;;;;;;;;5913497;23;20303;-79
2023/10/21 06:03:50;;;;;;;;;;;;;;;;;;5006229;28;20024;-79
2023/10/21 06:06:17;;;;;;;;;;;;;;;;;;4989716;28;20410;-80
2023/10/21 06:08:43;;;;;;;;;;;;;;;;;;5018054;28;20086;-80
2023/10/21 06:11:12;;;;;;;;;;;;;;;;;;5017122;28;20182;-80
2023/10/21 06:13:41;;;;;;;;;;;;;;;;;;5014448;28;19925;-81
2023/10/21 06:16:08;;;;;;;;;;;;;;;;;;5017913;28;19929;-81
2023/10/21 06:18:36;;;;;;;;;;;;;;;;;;5000064;28;20047;-80
2023/10/21 06:21:02;;;;;;;;;;;;;;;;;;5021106;28;20339;-82
2023/10/21 06:23:28;;;;;;;;;;;;;;;;;;5023252;28;19952;-82
2023/10/21 06:25:54;;;;;;;;;;;;;;;;;;5021597;28;19931;-82
2023/10/21 06:28:20;;;;;;;;;;;;;;;;;;5009013;28;19929;-81
2023/10/21 06:30:46;;;;;;;;;;;;;;;;;;5012604;28;20308;-82
2023/10/21 06:33:15;;;;;;;;;;;;;;;;;;5026251;28;19929;-80
2023/10/21 06:35:44;;;;;;;;;;;;;;;;;;4997689;28;19929;-81
2023/10/21 06:38:10;;;;;;;;;;;;;;;;;;5017594;28;20458;-81
2023/10/21 06:40:36;;;;;;;;;;;;;;;;;;5001976;28;19987;-82
2023/10/21 06:43:02;;;;;;;;;;;;;;;;;;5001647;28;19925;-81
2023/10/21 06:45:29;;;;;;;;;;;;;;;;;;5015493;28;20458;-81
2023/10/21 06:47:55;;;;;;;;;;;;;;;;;;5016173;28;20351;-81
2023/10/21 06:50:21;;;;;;;;;;;;;;;;;;4989833;28;19986;-80
2023/10/21 06:52:52;;;;;;;;;;;;;;;;;;5020728;28;19988;-79
2023/10/21 06:55:33;;;;;;;;;;;;;;;;;;5034357;28;19935;-81
2023/10/21 06:57:59;;;;;;;;;;;;;;;;;;5020855;28;19929;-82
2023/10/21 07:00:25;;;;;;;;;;;;;;;;;;5015936;28;19928;-82
2023/10/21 07:02:51;;;;;;;;;;;;;;;;;;5015547;28;19936;-83
2023/10/21 07:05:17;;;;;;;;;;;;;;;;;;5011052;28;19929;-83
2023/10/21 07:07:43;;;;;;;;;;;;;;;;;;5015273;28;19940;-82
2023/10/21 07:10:12;;;;;;;;;;;;;;;;;;5015471;28;19929;-82
2023/10/21 07:12:38;;;;;;;;;;;;;;;;;;5000726;28;20323;-81
2023/10/21 07:15:04;;;;;;;;;;;;;;;;;;4994233;28;19952;-82
2023/10/21 07:17:31;;;;;;;;;;;;;;;;;;5015859;28;19929;-81
2023/10/21 07:19:57;;;;;;;;;;;;;;;;;;4995325;28;19992;-80
2023/10/21 07:22:26;;;;;;;;;;;;;;;;;;5003234;28;20346;-81
2023/10/21 07:24:52;;;;;;;;;;;;;;;;;;5000571;28;19935;-81
2023/10/21 07:27:18;;;;;;;;;;;;;;;;;;5025633;28;19933;-81
2023/10/21 07:29:44;;;;;;;;;;;;;;;;;;5023703;28;20425;-82
2023/10/21 07:32:09;;;;;;;;;;;;;;;;;;5027177;28;19933;-81
2023/10/21 07:34:35;;;;;;;;;;;;;;;;;;5045823;28;20009;-81
2023/10/21 07:37:02;;;;;;;;;;;;;;;;;;5021843;28;20138;-82
2023/10/21 07:39:28;;;;;;;;;;;;;;;;;;5025867;28;19924;-82
2023/10/21 07:41:54;;;;;;;;;;;;;;;;;;5021887;28;19928;-81
2023/10/21 07:44:20;;;;;;;;;;;;;;;;;;5025336;28;20187;-80
2023/10/21 07:46:46;;;;;;;;;;;;;;;;;;5029253;28;19929;-81
2023/10/21 07:49:13;;;;;;;;;;;;;;;;;;5006200;28;20474;-80
2023/10/21 07:51:40;;;;;;;;;;;;;;;;;;5022391;28;19991;-79
2023/10/21 07:54:13;;;;;;;;;;;;;;;;;;5017480;28;20307;-80
2023/10/21 07:56:48;;;;;;;;;;;;;;;;;;5021847;28;19925;-80
2023/10/21 07:59:14;;;;;;;;;;;;;;;;;;5026855;28;20363;-79
2023/10/21 08:04:32;;;;;;;;;;;;;;;;;;5022978;28;19936;-79
2023/10/21 08:06:58;;;;;;;;;;;;;;;;;;5018634;28;19933;-79
2023/10/21 08:09:24;;;;;;;;;;;;;;;;;;5026813;28;19938;-79
2023/10/21 08:11:50;;;;;;;;;;;;;;;;;;5016918;28;19925;-79
2023/10/21 08:14:16;;;;;;;;;;;;;;;;;;4995256;28;20369;-79
2023/10/21 08:16:56;;;;;;;;;;;;;;;;;;;;;
2023/10/21 08:19:42;;;;;;;;;;;;;;;;;;5041202;28;20701;-78
2023/10/21 08:25:20;;;;;;;;;;;;;;;;;;5013919;28;19975;-79
2023/10/21 08:28:15;;;;;;;;;;;;;;;;;;;;;
2023/10/21 08:31:11;;;;;;;;;;;;;;;;;;4990057;28;19933;-79
2023/10/21 08:33:58;;;;;;;;;;;;;;;;;;5013375;28;20066;-80
2023/10/21 08:36:53;;;;;;;;;;;;;;;;;;5007638;28;20451;-79
2023/10/21 08:39:26;;;;;;;;;;;;;;;;;;5022440;28;20023;-79
2023/10/21 08:41:55;;;;;;;;;;;;;;;;;;5012025;28;19933;-79
2023/10/21 08:44:41;;;;;;;;;;;;;;;;;;5020153;28;19987;-79
2023/10/21 08:49:53;;;;;;;;;;;;;;;;;;5017425;28;19929;-79
2023/10/21 08:52:31;;;;;;;;;;;;;;;;;;5029313;28;20314;-79
2023/10/21 08:57:53;;;;;;;;;;;;;;;;;;4971712;28;19966;-79
2023/10/21 09:00:38;;;;;;;;;;;;;;;;;;4993933;28;19925;-81
2023/10/21 09:03:04;;;;;;;;;;;;;;;;;;4975547;28;20011;-80
2023/10/21 09:05:30;;;;;;;;;;;;;;;;;;4972255;28;19996;-80
2023/10/21 09:07:56;;;;;;;;;;;;;;;;;;4977013;28;20023;-80
2023/10/21 09:10:22;;;;;;;;;;;;;;;;;;4969121;28;19937;-81
2023/10/21 09:12:48;;;;;;;;;;;;;;;;;;4987648;28;19933;-80
2023/10/21 09:15:14;;;;;;;;;;;;;;;;;;4986607;28;19929;-82
2023/10/21 09:17:40;;;;;;;;;;;;;;;;;;4982153;28;19952;-80
2023/10/21 09:20:05;;;;;;;;;;;;;;;;;;4979803;28;19930;-80
2023/10/21 09:22:33;;;;;;;;;;;;;;;;;;4978740;28;19925;-80
2023/10/21 09:24:59;;;;;;;;;;;;;;;;;;4988270;28;19926;-81
2023/10/21 09:27:25;;;;;;;;;;;;;;;;;;5026592;28;19983;-80
2023/10/21 09:29:51;;;;;;;;;;;;;;;;;;5018895;28;19929;-83
2023/10/21 09:32:16;;;;;;;;;;;;;;;;;;4997626;28;19925;-82
2023/10/21 09:37:18;;;;;;;;;;;;;;;;;;5461123;22;20433;-85
2023/10/21 09:39:44;;;;;;;;;;;;;;;;;;4989049;28;19929;-80
2023/10/21 09:42:10;;;;;;;;;;;;;;;;;;5002667;28;19936;-89
2023/10/21 09:44:38;;;;;;;;;;;;;;;;;;5001964;28;20459;-87
2023/10/21 09:47:03;;;;;;;;;;;;;;;;;;5005834;28;19937;-84
2023/10/21 09:49:29;;;;;;;;;;;;;;;;;;4989319;28;19929;-90
2023/10/21 09:51:55;;;;;;;;;;;;;;;;;;5001699;28;19921;-88
2023/10/21 09:54:22;;;;;;;;;;;;;;;;;;4993696;28;19929;-89
2023/10/21 09:56:48;;;;;;;;;;;;;;;;;;5003707;28;19995;-86
2023/10/21 09:59:14;;;;;;;;;;;;;;;;;;5003176;28;20489;-92
2023/10/21 10:01:40;;;;;;;;;;;;;;;;;;4982595;28;19933;-92
2023/10/21 10:04:09;;;;;;;;;;;;;;;;;;5023946;28;19976;-87
2023/10/21 10:06:35;;;;;;;;;;;;;;;;;;5005068;28;19956;-87
2023/10/21 10:09:06;;;;;;;;;;;;;;;;;;4987890;28;19929;-84
2023/10/21 10:11:32;;;;;;;;;;;;;;;;;;4973638;28;19936;-83
2023/10/21 10:13:58;;;;;;;;;;;;;;;;;;4974597;28;19933;-85
2023/10/21 10:16:24;;;;;;;;;;;;;;;;;;4977111;28;19929;-86
2023/10/21 10:18:50;;;;;;;;;;;;;;;;;;4992629;28;19932;-84
2023/10/21 10:21:16;;;;;;;;;;;;;;;;;;4992553;28;19933;-87
2023/10/21 10:23:41;;;;;;;;;;;;;;;;;;4996359;28;20056;-87
2023/10/21 10:26:08;;;;;;;;;;;;;;;;;;5012065;28;19929;-87
2023/10/21 10:28:34;;;;;;;;;;;;;;;;;;4969124;28;19930;-85
2023/10/21 10:31:04;;;;;;;;;;;;;;;;;;5009308;28;20447;-84
2023/10/21 10:33:33;;;;;;;;;;;;;;;;;;5008031;28;19930;-86
2023/10/21 10:36:12;;;;;;;;;;;;;;;;;;4976247;28;20400;-85
2023/10/21 10:38:38;;;;;;;;;;;;;;;;;;4991575;28;20017;-87
2023/10/21 10:41:06;;;;;;;;;;;;;;;;;;5008817;28;19933;-84
2023/10/21 10:43:31;;;;;;;;;;;;;;;;;;4979466;28;19929;-86
2023/10/21 10:46:00;;;;;;;;;;;;;;;;;;4979643;28;20002;-89
2023/10/21 10:48:29;;;;;;;;;;;;;;;;;;4995173;28;19988;-86
2023/10/21 10:50:55;;;;;;;;;;;;;;;;;;5013589;28;20476;-88
2023/10/21 10:53:21;;;;;;;;;;;;;;;;;;4989334;28;19940;-84
2023/10/21 10:55:48;;;;;;;;;;;;;;;;;;4996068;28;20023;-88
2023/10/21 10:58:14;;;;;;;;;;;;;;;;;;4989902;28;19929;-83
2023/10/21 11:00:40;;;;;;;;;;;;;;;;;;4998867;28;20411;-85
2023/10/21 11:03:06;;;;;;;;;;;;;;;;;;4975714;28;19929;-83
2023/10/21 11:05:32;;;;;;;;;;;;;;;;;;5006847;28;19965;-83
2023/10/21 11:07:59;;;;;;;;;;;;;;;;;;4988767;28;19929;-82
2023/10/21 11:10:25;;;;;;;;;;;;;;;;;;5012591;28;19929;-84
2023/10/21 11:12:51;;;;;;;;;;;;;;;;;;5010619;28;20040;-85
2023/10/21 11:15:17;;;;;;;;;;;;;;;;;;4987326;28;20020;-85
2023/10/21 11:17:43;;;;;;;;;;;;;;;;;;4996124;28;19933;-85
2023/10/21 11:20:08;;;;;;;;;;;;;;;;;;4998377;28;19929;-85
2023/10/21 11:22:34;;;;;;;;;;;;;;;;;;4974142;28;19933;-85
2023/10/21 11:25:00;;;;;;;;;;;;;;;;;;5017421;28;19936;-85
2023/10/21 11:30:14;;;;;;;;;;;;;;;;;;4993262;28;19933;-84
2023/10/21 11:32:40;;;;;;;;;;;;;;;;;;5012012;28;20015;-85
2023/10/21 11:35:09;;;;;;;;;;;;;;;;;;4979218;28;20014;-85
2023/10/21 11:37:35;;;;;;;;;;;;;;;;;;4985885;28;19930;-85
2023/10/21 11:40:00;;;;;;;;;;;;;;;;;;4990143;28;19936;-83
2023/10/21 11:42:27;;;;;;;;;;;;;;;;;;4998667;28;20641;-83
2023/10/21 11:44:53;;;;;;;;;;;;;;;;;;4994789;28;19930;-83
2023/10/21 11:47:19;;;;;;;;;;;;;;;;;;4998780;28;19938;-83
2023/10/21 11:49:45;;;;;;;;;;;;;;;;;;4990917;28;19938;-86
2023/10/21 11:52:11;;;;;;;;;;;;;;;;;;4996332;28;19933;-84
2023/10/21 11:54:40;;;;;;;;;;;;;;;;;;4994904;28;20489;-83
2023/10/21 12:03:20;;;;;;;;;;;;;;;;;;4993652;28;20004;-85
2023/10/21 12:11:09;;;;;;;;;;;;;;;;;;4989819;28;20009;-87
2023/10/21 12:40:34;;;;;;;;;;;;;;;;;;4993713;28;20032;-85
2023/10/21 12:45:46;;;;;;;;;;;;;;;;;;4986894;28;19961;-84
2023/10/21 12:48:13;;;;;;;;;;;;;;;;;;4992599;28;19929;-87
2023/10/21 12:50:40;;;;;;;;;;;;;;;;;;4987882;28;19934;-82
2023/10/21 12:53:06;;;;;;;;;;;;;;;;;;4989846;28;19976;-85
2023/10/21 12:55:35;;;;;;;;;;;;;;;;;;4974057;28;19929;-84
2023/10/21 12:58:01;;;;;;;;;;;;;;;;;;4985224;28;19929;-89
2023/10/21 13:00:27;;;;;;;;;;;;;;;;;;4990059;28;19936;-87
2023/10/21 13:02:53;;;;;;;;;;;;;;;;;;4994148;28;19930;-84
2023/10/21 13:05:19;;;;;;;;;;;;;;;;;;4992294;28;19926;-85
2023/10/21 13:07:45;;;;;;;;;;;;;;;;;;4996735;28;20547;-84
2023/10/21 13:10:13;;;;;;;;;;;;;;;;;;4990217;28;20295;-87
2023/10/21 13:12:39;;;;;;;;;;;;;;;;;;4995190;28;19934;-83
2023/10/21 13:15:09;;;;;;;;;;;;;;;;;;4986693;28;19932;-86
2023/10/21 13:17:37;;;;;;;;;;;;;;;;;;4994084;28;19933;-83
2023/10/21 13:20:04;;;;;;;;;;;;;;;;;;4990817;28;20093;-87
2023/10/21 13:22:32;;;;;;;;;;;;;;;;;;4993423;28;19930;-86
2023/10/21 13:25:00;;;;;;;;;;;;;;;;;;4990932;28;19932;-86
2023/10/21 13:27:25;;;;;;;;;;;;;;;;;;4968380;28;19933;-85
2023/10/21 13:29:51;;;;;;;;;;;;;;;;;;4989287;28;19930;-84
2023/10/21 13:32:17;;;;;;;;;;;;;;;;;;4970561;28;20400;-84
2023/10/21 13:34:43;;;;;;;;;;;;;;;;;;4987459;28;19937;-82
2023/10/21 13:37:09;;;;;;;;;;;;;;;;;;5004643;28;19957;-84
2023/10/21 13:39:35;;;;;;;;;;;;;;;;;;5146695;22;20261;-90
2023/10/21 13:42:05;;;;;;;;;;;;;;;;;;5022626;28;19985;-84
2023/10/21 13:44:34;;;;;;;;;;;;;;;;;;5008452;28;20387;-84
2023/10/21 13:47:00;;;;;;;;;;;;;;;;;;5025213;28;19937;-85
2023/10/21 13:52:08;;;;;;;;;;;;;;;;;;6036608;22;20053;-81
2023/10/21 13:54:34;;;;;;;;;;;;;;;;;;4982785;28;20021;-85
2023/10/21 13:57:03;;;;;;;;;;;;;;;;;;4972930;28;20403;-85
2023/10/21 13:59:29;;;;;;;;;;;;;;;;;;5004788;28;19929;-86
2023/10/21 14:01:55;;;;;;;;;;;;;;;;;;5005533;28;20017;-86
2023/10/21 14:04:21;;;;;;;;;;;;;;;;;;4987591;28;20496;-85
2023/10/21 14:06:48;;;;;;;;;;;;;;;;;;4974544;28;20016;-85
2023/10/21 14:09:22;;;;;;;;;;;;;;;;;;4979446;28;19983;-86
2023/10/21 14:11:48;;;;;;;;;;;;;;;;;;4988434;28;19934;-87
2023/10/21 14:14:17;;;;;;;;;;;;;;;;;;5015736;28;21121;-86
2023/10/21 14:16:43;;;;;;;;;;;;;;;;;;4979987;28;19925;-88
2023/10/21 14:19:09;;;;;;;;;;;;;;;;;;4987868;28;19987;-86
2023/10/21 14:21:35;;;;;;;;;;;;;;;;;;4996609;28;19936;-86
2023/10/21 14:24:01;;;;;;;;;;;;;;;;;;5012301;28;19996;-86
2023/10/21 14:26:27;;;;;;;;;;;;;;;;;;4983192;28;20406;-87
2023/10/21 14:28:55;;;;;;;;;;;;;;;;;;5024189;28;20405;-87
2023/10/21 14:31:24;;;;;;;;;;;;;;;;;;5006272;28;19995;-85
2023/10/21 14:33:50;;;;;;;;;;;;;;;;;;4986655;28;20018;-87
2023/10/21 14:36:16;;;;;;;;;;;;;;;;;;4987057;28;20514;-87
2023/10/21 14:38:42;;;;;;;;;;;;;;;;;;4984882;28;20055;-85
2023/10/21 14:41:09;;;;;;;;;;;;;;;;;;5025444;28;19968;-86
2023/10/21 14:43:35;;;;;;;;;;;;;;;;;;5017011;28;19928;-86
2023/10/21 14:46:01;;;;;;;;;;;;;;;;;;5006780;28;20579;-86
2023/10/21 14:48:27;;;;;;;;;;;;;;;;;;4984156;28;19930;-85
2023/10/21 14:50:53;;;;;;;;;;;;;;;;;;5008111;28;19929;-86
2023/10/21 14:53:19;;;;;;;;;;;;;;;;;;4987276;28;19925;-86
2023/10/21 14:58:33;;;;;;;;;;;;;;;;;;5023277;22;19941;-86
2023/10/21 15:00:59;;;;;;;;;;;;;;;;;;4984657;28;19928;-86
2023/10/21 15:03:25;;;;;;;;;;;;;;;;;;4989174;28;20407;-86
2023/10/21 15:05:54;;;;;;;;;;;;;;;;;;4978859;28;19959;-86
2023/10/21 15:08:26;;;;;;;;;;;;;;;;;;5024477;28;19929;-86
2023/10/21 15:10:52;;;;;;;;;;;;;;;;;;5004410;28;20161;-87
2023/10/21 15:13:18;;;;;;;;;;;;;;;;;;5001058;28;19929;-86
2023/10/21 15:15:44;;;;;;;;;;;;;;;;;;5024931;28;19929;-87
2023/10/21 15:18:10;;;;;;;;;;;;;;;;;;4990051;28;19971;-87
2023/10/21 15:20:36;;;;;;;;;;;;;;;;;;5004905;28;19933;-86
2023/10/21 15:23:02;;;;;;;;;;;;;;;;;;4992917;28;19936;-86
2023/10/21 15:25:28;;;;;;;;;;;;;;;;;;5002535;28;19928;-87
2023/10/21 15:27:54;;;;;;;;;;;;;;;;;;4991946;28;20500;-87
2023/10/21 15:30:20;;;;;;;;;;;;;;;;;;4995818;28;19952;-87
2023/10/21 15:32:47;;;;;;;;;;;;;;;;;;5012215;28;19929;-87
2023/10/21 15:38:16;;;;;;;;;;;;;;;;;;5024062;22;19936;-87
2023/10/21 15:40:42;;;;;;;;;;;;;;;;;;4999343;28;19929;-87
2023/10/21 15:43:08;;;;;;;;;;;;;;;;;;4994911;28;19937;-87
2023/10/21 15:45:34;;;;;;;;;;;;;;;;;;4994936;28;19936;-87
2023/10/21 15:48:00;;;;;;;;;;;;;;;;;;5023916;28;20227;-86
2023/10/21 15:50:26;;;;;;;;;;;;;;;;;;5021441;28;20446;-87
2023/10/21 15:55:28;;;;;;;;;;;;;;;;;;5143339;22;19929;-86
2023/10/21 15:57:54;;;;;;;;;;;;;;;;;;5016648;28;19928;-86
2023/10/21 16:03:19;;;;;;;;;;;;;;;;;;5024635;28;19936;-86
2023/10/21 16:05:46;;;;;;;;;;;;;;;;;;5030662;28;19936;-86
2023/10/21 16:08:12;;;;;;;;;;;;;;;;;;5051525;28;19977;-86
2023/10/21 16:10:38;;;;;;;;;;;;;;;;;;5020413;28;19928;-86
2023/10/21 16:13:04;;;;;;;;;;;;;;;;;;5030595;28;19925;-87
2023/10/21 16:15:31;;;;;;;;;;;;;;;;;;5047654;28;20501;-87
2023/10/21 16:17:57;;;;;;;;;;;;;;;;;;5046237;28;19928;-87
2023/10/21 16:20:23;;;;;;;;;;;;;;;;;;5046628;28;19948;-86
2023/10/21 16:22:48;;;;;;;;;;;;;;;;;;5009349;28;20407;-86
2023/10/21 16:25:14;;;;;;;;;;;;;;;;;;5028585;28;19925;-86
2023/10/21 16:27:40;;;;;;;;;;;;;;;;;;5019618;28;19982;-85
2023/10/21 16:30:06;;;;;;;;;;;;;;;;;;5041894;28;19936;-86
2023/10/21 16:32:32;;;;;;;;;;;;;;;;;;5038263;28;19983;-86
2023/10/21 16:34:58;;;;;;;;;;;;;;;;;;5020229;28;20012;-87
2023/10/21 16:37:24;;;;;;;;;;;;;;;;;;5033136;28;20602;-87
2023/10/21 16:39:51;;;;;;;;;;;;;;;;;;5007033;28;19943;-89
2023/10/21 16:42:17;;;;;;;;;;;;;;;;;;5014746;28;19971;-85
2023/10/21 16:44:43;;;;;;;;;;;;;;;;;;5035646;28;19936;-86
2023/10/21 16:47:09;;;;;;;;;;;;;;;;;;5005857;28;20025;-86
2023/10/21 16:49:35;;;;;;;;;;;;;;;;;;5021051;28;20062;-85
2023/10/21 16:52:01;;;;;;;;;;;;;;;;;;5014005;28;19925;-86
2023/10/21 16:54:27;;;;;;;;;;;;;;;;;;5035543;28;19932;-87
2023/10/21 16:56:53;;;;;;;;;;;;;;;;;;5006684;28;19936;-86
2023/10/21 16:59:19;;;;;;;;;;;;;;;;;;5042049;28;19928;-86
2023/10/21 17:01:46;;;;;;;;;;;;;;;;;;5042949;28;19928;-86
2023/10/21 17:04:12;;;;;;;;;;;;;;;;;;5019362;28;19933;-86
2023/10/21 17:06:39;;;;;;;;;;;;;;;;;;5043475;28;19931;-86
2023/10/21 17:09:05;;;;;;;;;;;;;;;;;;5028912;28;19929;-86
2023/10/21 17:11:31;;;;;;;;;;;;;;;;;;5018521;28;19935;-86
2023/10/21 17:13:57;;;;;;;;;;;;;;;;;;5012877;28;19925;-85
2023/10/21 17:16:23;;;;;;;;;;;;;;;;;;5018602;28;20353;-86
2023/10/21 17:18:49;;;;;;;;;;;;;;;;;;5035948;28;20048;-85
2023/10/21 17:21:15;;;;;;;;;;;;;;;;;;5018286;28;19980;-85
2023/10/21 17:23:41;;;;;;;;;;;;;;;;;;5022210;28;20039;-86
2023/10/21 17:26:07;;;;;;;;;;;;;;;;;;5027497;28;20023;-86
2023/10/21 17:28:33;;;;;;;;;;;;;;;;;;5042751;28;19933;-86
2023/10/21 17:30:59;;;;;;;;;;;;;;;;;;5012320;28;19929;-86
2023/10/21 17:33:24;;;;;;;;;;;;;;;;;;5039512;28;19925;-86
2023/10/21 17:35:50;;;;;;;;;;;;;;;;;;5042899;28;19937;-86
2023/10/21 17:38:17;;;;;;;;;;;;;;;;;;5039817;28;20414;-86
2023/10/21 17:40:50;;;;;;;;;;;;;;;;;;5017719;28;20391;-86
2023/10/21 17:43:20;;;;;;;;;;;;;;;;;;5013698;28;20269;-86
2023/10/21 17:45:46;;;;;;;;;;;;;;;;;;5030133;28;20138;-85
2023/10/21 17:48:12;;;;;;;;;;;;;;;;;;5034503;28;20400;-85
2023/10/21 17:50:38;;;;;;;;;;;;;;;;;;4999328;28;19983;-86
2023/10/21 17:53:04;;;;;;;;;;;;;;;;;;5021095;28;19941;-85
2023/10/21 17:55:30;;;;;;;;;;;;;;;;;;5005012;28;19960;-86
2023/10/21 17:57:56;;;;;;;;;;;;;;;;;;5004376;28;20384;-85
2023/10/21 18:00:22;;;;;;;;;;;;;;;;;;5027998;28;19936;-85
2023/10/21 18:02:48;;;;;;;;;;;;;;;;;;5022789;28;19932;-84
2023/10/21 18:05:14;;;;;;;;;;;;;;;;;;5041718;28;20001;-84
2023/10/21 18:07:41;;;;;;;;;;;;;;;;;;5004939;28;20048;-84
2023/10/21 18:10:07;;;;;;;;;;;;;;;;;;5018254;28;20289;-85
2023/10/21 18:12:33;;;;;;;;;;;;;;;;;;5021422;28;20023;-84
2023/10/21 18:14:59;;;;;;;;;;;;;;;;;;5019678;28;20003;-85
2023/10/21 18:17:24;;;;;;;;;;;;;;;;;;5036304;28;19932;-85
2023/10/21 18:19:50;;;;;;;;;;;;;;;;;;5042503;28;19933;-85
2023/10/21 18:22:16;;;;;;;;;;;;;;;;;;5036096;28;20485;-84
2023/10/21 18:24:42;;;;;;;;;;;;;;;;;;5049701;28;19928;-86
2023/10/21 18:27:08;;;;;;;;;;;;;;;;;;5036878;28;19936;-85
2023/10/21 18:29:35;;;;;;;;;;;;;;;;;;5019766;28;19972;-86
2023/10/21 18:32:03;;;;;;;;;;;;;;;;;;5014096;28;19928;-85
2023/10/21 18:34:29;;;;;;;;;;;;;;;;;;5021179;28;19925;-85
2023/10/21 18:36:55;;;;;;;;;;;;;;;;;;5030565;28;19946;-86
2023/10/21 18:39:21;;;;;;;;;;;;;;;;;;5024288;28;20292;-85
2023/10/21 18:41:47;;;;;;;;;;;;;;;;;;4998256;28;20406;-85
2023/10/21 18:44:13;;;;;;;;;;;;;;;;;;5021451;28;19968;-85
2023/10/21 18:46:40;;;;;;;;;;;;;;;;;;5013858;28;20024;-86
2023/10/21 18:49:06;;;;;;;;;;;;;;;;;;5014485;28;20757;-85
2023/10/21 18:51:32;;;;;;;;;;;;;;;;;;5014228;28;20023;-86
2023/10/21 18:53:58;;;;;;;;;;;;;;;;;;5012676;28;19935;-86
2023/10/21 18:56:25;;;;;;;;;;;;;;;;;;5018077;28;20004;-85
2023/10/21 18:58:51;;;;;;;;;;;;;;;;;;5010831;28;19943;-85
2023/10/21 19:01:26;;;;;;;;;;;;;;;;;;5034049;28;19928;-85
2023/10/21 19:03:55;;;;;;;;;;;;;;;;;;5001387;28;19939;-84
2023/10/21 19:06:21;;;;;;;;;;;;;;;;;;5009186;28;19929;-86
2023/10/21 19:08:47;;;;;;;;;;;;;;;;;;5032080;28;19935;-86
2023/10/21 19:14:04;;;;;;;;;;;;;;;;;;5014613;28;19929;-86
2023/10/21 19:16:36;;;;;;;;;;;;;;;;;;5004756;28;19991;-86
2023/10/21 19:19:03;;;;;;;;;;;;;;;;;;5026627;28;20284;-85
2023/10/21 19:21:29;;;;;;;;;;;;;;;;;;5017559;28;19929;-85
2023/10/21 19:23:55;;;;;;;;;;;;;;;;;;5039404;28;19944;-85
2023/10/21 19:26:22;;;;;;;;;;;;;;;;;;5029716;28;19925;-85
2023/10/21 19:28:48;;;;;;;;;;;;;;;;;;5005263;28;19929;-85
2023/10/21 19:31:17;;;;;;;;;;;;;;;;;;5018877;28;19929;-86
2023/10/21 19:33:43;;;;;;;;;;;;;;;;;;5028570;28;20032;-85
2023/10/21 19:36:10;;;;;;;;;;;;;;;;;;5031386;28;20807;-84
2023/10/21 19:38:37;;;;;;;;;;;;;;;;;;4996793;28;19925;-85
2023/10/21 19:41:03;;;;;;;;;;;;;;;;;;5026597;28;19931;-85
2023/10/21 19:43:29;;;;;;;;;;;;;;;;;;5028352;28;19936;-86
2023/10/21 19:45:55;;;;;;;;;;;;;;;;;;5020737;28;19932;-85
2023/10/21 19:48:21;;;;;;;;;;;;;;;;;;5027308;28;20486;-85
2023/10/21 19:50:47;;;;;;;;;;;;;;;;;;5027147;28;19932;-85
2023/10/21 19:53:13;;;;;;;;;;;;;;;;;;5031647;28;19928;-85
2023/10/21 19:55:39;;;;;;;;;;;;;;;;;;5018750;28;19928;-85
2023/10/21 19:58:06;;;;;;;;;;;;;;;;;;5018910;28;19936;-85
2023/10/21 20:00:32;;;;;;;;;;;;;;;;;;5037240;28;20505;-85
2023/10/21 20:02:58;;;;;;;;;;;;;;;;;;5032532;28;19933;-86
2023/10/21 20:05:25;;;;;;;;;;;;;;;;;;5026229;28;19981;-85
2023/10/21 20:07:51;;;;;;;;;;;;;;;;;;5038315;28;19969;-85
2023/10/21 20:10:19;;;;;;;;;;;;;;;;;;5032308;28;19940;-85
2023/10/21 20:12:45;;;;;;;;;;;;;;;;;;5009657;28;19956;-85
2023/10/21 20:15:10;;;;;;;;;;;;;;;;;;5021868;28;20773;-85
2023/10/21 20:17:36;;;;;;;;;;;;;;;;;;5021899;28;19944;-86
2023/10/21 20:20:02;;;;;;;;;;;;;;;;;;5015355;28;20028;-85
2023/10/21 20:22:28;;;;;;;;;;;;;;;;;;5042620;28;20282;-86
2023/10/21 20:24:55;;;;;;;;;;;;;;;;;;5026846;28;19932;-86
2023/10/21 20:27:24;;;;;;;;;;;;;;;;;;5029351;28;20003;-86
2023/10/21 20:29:50;;;;;;;;;;;;;;;;;;5046325;28;20048;-85
2023/10/21 20:32:16;;;;;;;;;;;;;;;;;;5028331;28;19935;-85
2023/10/21 20:34:42;;;;;;;;;;;;;;;;;;5021031;28;19929;-86
2023/10/21 20:37:08;;;;;;;;;;;;;;;;;;5048975;28;19932;-86
2023/10/21 20:39:34;;;;;;;;;;;;;;;;;;5040428;28;20398;-85
2023/10/21 20:42:03;;;;;;;;;;;;;;;;;;5051879;28;20103;-85
2023/10/21 20:44:32;;;;;;;;;;;;;;;;;;5021626;28;20143;-85
2023/10/21 20:46:58;;;;;;;;;;;;;;;;;;5021980;28;20023;-85
2023/10/21 20:49:24;;;;;;;;;;;;;;;;;;5036972;28;20042;-85
2023/10/21 20:51:50;;;;;;;;;;;;;;;;;;5015157;28;19929;-85
2023/10/21 20:54:19;;;;;;;;;;;;;;;;;;5023849;28;19983;-87
2023/10/21 20:56:45;;;;;;;;;;;;;;;;;;5022052;28;20019;-85
2023/10/21 20:59:11;;;;;;;;;;;;;;;;;;5021069;28;19943;-85
2023/10/21 21:01:37;;;;;;;;;;;;;;;;;;5011591;28;20372;-85
2023/10/21 21:04:03;;;;;;;;;;;;;;;;;;5022758;28;20012;-85
2023/10/21 21:06:29;;;;;;;;;;;;;;;;;;5003259;28;20414;-85
2023/10/21 21:08:55;;;;;;;;;;;;;;;;;;5027099;28;19941;-85
2023/10/21 21:11:21;;;;;;;;;;;;;;;;;;5046232;28;19935;-85
2023/10/21 21:13:47;;;;;;;;;;;;;;;;;;5033685;28;20451;-83
2023/10/21 21:16:16;;;;;;;;;;;;;;;;;;5019624;28;20012;-84
2023/10/21 21:18:42;;;;;;;;;;;;;;;;;;5028319;28;19929;-85
2023/10/21 21:21:08;;;;;;;;;;;;;;;;;;5004632;28;19935;-84
2023/10/21 21:23:34;;;;;;;;;;;;;;;;;;5020234;28;19925;-85
2023/10/21 21:26:00;;;;;;;;;;;;;;;;;;5015515;28;20249;-85
2023/10/21 21:28:26;;;;;;;;;;;;;;;;;;5044869;28;19933;-85
2023/10/21 21:30:52;;;;;;;;;;;;;;;;;;5011281;28;19940;-85
2023/10/21 21:33:18;;;;;;;;;;;;;;;;;;5041992;28;19960;-84
2023/10/21 21:35:47;;;;;;;;;;;;;;;;;;5048750;28;19929;-84
2023/10/21 21:38:13;;;;;;;;;;;;;;;;;;5049082;28;19940;-85
2023/10/21 21:40:40;;;;;;;;;;;;;;;;;;5048960;28;19980;-85
2023/10/21 21:43:06;;;;;;;;;;;;;;;;;;5013422;28;19940;-84
2023/10/21 21:45:32;;;;;;;;;;;;;;;;;;5019438;28;19929;-84
2023/10/21 21:47:57;;;;;;;;;;;;;;;;;;5021945;28;20015;-85
2023/10/21 21:50:23;;;;;;;;;;;;;;;;;;5017411;28;19929;-84
2023/10/21 21:52:49;;;;;;;;;;;;;;;;;;5028637;28;20372;-85
2023/10/21 21:55:16;;;;;;;;;;;;;;;;;;5047055;28;19929;-84
2023/10/21 21:57:51;;;;;;;;;;;;;;;;;;5045997;28;19973;-84
2023/10/21 22:00:36;;;;;;;;;;;;;;;;;;5043417;28;19933;-85
2023/10/21 22:03:05;;;;;;;;;;;;;;;;;;5012704;28;19932;-84
2023/10/21 22:05:31;;;;;;;;;;;;;;;;;;5006961;28;19929;-85
2023/10/21 22:07:57;;;;;;;;;;;;;;;;;;5054435;28;19933;-84
2023/10/21 22:10:23;;;;;;;;;;;;;;;;;;5029734;28;19929;-84
2023/10/21 22:12:49;;;;;;;;;;;;;;;;;;5017136;28;19940;-84
2023/10/21 22:15:15;;;;;;;;;;;;;;;;;;5051406;28;20740;-83
2023/10/21 22:17:41;;;;;;;;;;;;;;;;;;5030742;28;19928;-84
2023/10/21 22:20:18;;;;;;;;;;;;;;;;;;5040862;28;19955;-84
2023/10/21 22:22:44;;;;;;;;;;;;;;;;;;5013136;28;19982;-84
2023/10/21 22:25:12;;;;;;;;;;;;;;;;;;5016116;28;19924;-85
2023/10/21 22:27:40;;;;;;;;;;;;;;;;;;5044656;28;20097;-83
2023/10/21 22:30:06;;;;;;;;;;;;;;;;;;5010638;28;20382;-84
2023/10/21 22:32:33;;;;;;;;;;;;;;;;;;5040162;28;20116;-83
2023/10/21 22:35:00;;;;;;;;;;;;;;;;;;5044916;28;19962;-84
2023/10/21 22:37:26;;;;;;;;;;;;;;;;;;5021209;28;20252;-84
2023/10/21 22:39:55;;;;;;;;;;;;;;;;;;5019784;28;19924;-84
2023/10/21 22:42:20;;;;;;;;;;;;;;;;;;5036936;28;19987;-84
2023/10/21 22:44:46;;;;;;;;;;;;;;;;;;5032821;28;20695;-84
2023/10/21 22:47:14;;;;;;;;;;;;;;;;;;5047011;28;20039;-84
2023/10/21 22:49:41;;;;;;;;;;;;;;;;;;5025866;28;19929;-84
2023/10/21 22:52:08;;;;;;;;;;;;;;;;;;5045047;28;20447;-84
2023/10/21 22:54:34;;;;;;;;;;;;;;;;;;5036848;28;20040;-85
2023/10/21 22:57:00;;;;;;;;;;;;;;;;;;5030915;28;20023;-84
2023/10/21 22:59:26;;;;;;;;;;;;;;;;;;5047742;28;20427;-84
2023/10/21 23:01:52;;;;;;;;;;;;;;;;;;5018687;28;19979;-84
2023/10/21 23:04:18;;;;;;;;;;;;;;;;;;5027114;28;20277;-84
2023/10/21 23:06:45;;;;;;;;;;;;;;;;;;5030561;28;19935;-84
2023/10/21 23:11:56;;;;;;;;;;;;;;;;;;5016068;28;20722;-85
2023/10/21 23:14:22;;;;;;;;;;;;;;;;;;5049308;28;19939;-84
2023/10/21 23:16:48;;;;;;;;;;;;;;;;;;5043832;28;19924;-84
2023/10/21 23:19:15;;;;;;;;;;;;;;;;;;5035530;28;19973;-84
2023/10/21 23:21:41;;;;;;;;;;;;;;;;;;5035925;28;19925;-84
2023/10/21 23:24:07;;;;;;;;;;;;;;;;;;5014389;28;20057;-84
2023/10/21 23:26:52;;;;;;;;;;;;;;;;;;5017460;28;20422;-84
2023/10/21 23:29:18;;;;;;;;;;;;;;;;;;5007000;28;19929;-85
2023/10/21 23:31:44;;;;;;;;;;;;;;;;;;4987727;28;19929;-84
2023/10/21 23:34:09;;;;;;;;;;;;;;;;;;5006438;28;20021;-86
2023/10/21 23:36:36;;;;;;;;;;;;;;;;;;5004010;28;19930;-83
2023/10/21 23:39:02;;;;;;;;;;;;;;;;;;5000845;28;19929;-84
2023/10/21 23:41:29;;;;;;;;;;;;;;;;;;4998657;28;20273;-84
2023/10/21 23:43:58;;;;;;;;;;;;;;;;;;4985442;28;19940;-85
2023/10/21 23:46:25;;;;;;;;;;;;;;;;;;4981444;28;20343;-84
2023/10/21 23:48:52;;;;;;;;;;;;;;;;;;5017511;28;20345;-84
2023/10/21 23:51:18;;;;;;;;;;;;;;;;;;5012349;28;19924;-84
2023/10/21 23:53:44;;;;;;;;;;;;;;;;;;4991921;28;20510;-85
2023/10/21 23:56:10;;;;;;;;;;;;;;;;;;4981486;28;19925;-84
2023/10/21 23:58:37;;;;;;;;;;;;;;;;;;5011928;28;19929;-84
